sensor_id;sensor_type;location;lat;lon;timestamp;P1;durP1;ratioP1;P2;durP2;ratioP2
32228;SDS011;18717;48.034;11.186;2024-03-22T00:02:09;23.55;;;17.92;;
32228;SDS011;18717;48.034;11.186;2024-03-22T00:04:36;23.70;;;19.45;;
32228;SDS011;18717;48.034;11.186;2024-03-22T00:07:02;23.17;;;18.58;;
32228;SDS011;18717;48.034;11.186;2024-03-22T00:09:29;33.10;;;19.55;;
32228;SDS011;18717;48.034;11.186;2024-03-22T00:11:55;25.65;;;18.23;;
32228;SDS011;18717;48.034;11.186;2024-03-22T00:14:22;25.85;;;18.73;;
32228;SDS011;18717;48.034;11.186;2024-03-22T00:16:50;26.58;;;19.13;;
32228;SDS011;18717;48.034;11.186;2024-03-22T00:19:16;23.70;;;17.65;;
32228;SDS011;18717;48.034;11.186;2024-03-22T00:21:42;32.28;;;20.55;;
32228;SDS011;18717;48.034;11.186;2024-03-22T00:24:09;25.70;;;19.45;;
32228;SDS011;18717;48.034;11.186;2024-03-22T00:26:35;24.50;;;19.30;;
32228;SDS011;18717;48.034;11.186;2024-03-22T00:29:01;24.05;;;19.20;;
32228;SDS011;18717;48.034;11.186;2024-03-22T00:31:27;24.08;;;18.20;;
32228;SDS011;18717;48.034;11.186;2024-03-22T00:33:55;25.85;;;19.45;;
32228;SDS011;18717;48.034;11.186;2024-03-22T00:36:21;33.28;;;21.23;;
32228;SDS011;18717;48.034;11.186;2024-03-22T00:38:48;30.38;;;22.00;;
32228;SDS011;18717;48.034;11.186;2024-03-22T00:41:13;35.88;;;22.17;;
32228;SDS011;18717;48.034;11.186;2024-03-22T00:43:40;34.55;;;21.88;;
32228;SDS011;18717;48.034;11.186;2024-03-22T00:46:06;35.25;;;22.23;;
32228;SDS011;18717;48.034;11.186;2024-03-22T00:48:33;34.33;;;22.38;;
32228;SDS011;18717;48.034;11.186;2024-03-22T00:51:02;34.40;;;23.30;;
32228;SDS011;18717;48.034;11.186;2024-03-22T00:53:29;31.30;;;21.58;;
32228;SDS011;18717;48.034;11.186;2024-03-22T00:55:55;30.63;;;21.73;;
32228;SDS011;18717;48.034;11.186;2024-03-22T00:58:24;30.67;;;20.90;;
32228;SDS011;18717;48.034;11.186;2024-03-22T01:00:51;30.02;;;21.33;;
32228;SDS011;18717;48.034;11.186;2024-03-22T01:03:18;32.90;;;21.85;;
32228;SDS011;18717;48.034;11.186;2024-03-22T01:05:44;34.10;;;22.17;;
32228;SDS011;18717;48.034;11.186;2024-03-22T01:08:13;32.05;;;21.17;;
32228;SDS011;18717;48.034;11.186;2024-03-22T01:10:38;26.35;;;19.67;;
32228;SDS011;18717;48.034;11.186;2024-03-22T01:13:06;30.67;;;20.98;;
32228;SDS011;18717;48.034;11.186;2024-03-22T01:15:32;31.15;;;21.10;;
32228;SDS011;18717;48.034;11.186;2024-03-22T01:17:58;29.35;;;20.65;;
32228;SDS011;18717;48.034;11.186;2024-03-22T01:20:24;31.05;;;22.10;;
32228;SDS011;18717;48.034;11.186;2024-03-22T01:22:51;28.45;;;19.30;;
32228;SDS011;18717;48.034;11.186;2024-03-22T01:25:18;28.33;;;20.08;;
32228;SDS011;18717;48.034;11.186;2024-03-22T01:27:45;26.70;;;19.25;;
32228;SDS011;18717;48.034;11.186;2024-03-22T01:30:11;20.65;;;17.15;;
32228;SDS011;18717;48.034;11.186;2024-03-22T01:32:37;26.63;;;19.08;;
32228;SDS011;18717;48.034;11.186;2024-03-22T01:35:03;26.42;;;18.17;;
32228;SDS011;18717;48.034;11.186;2024-03-22T01:37:31;20.58;;;16.20;;
32228;SDS011;18717;48.034;11.186;2024-03-22T01:39:56;18.55;;;15.93;;
32228;SDS011;18717;48.034;11.186;2024-03-22T01:42:25;18.23;;;15.48;;
32228;SDS011;18717;48.034;11.186;2024-03-22T01:44:51;17.10;;;14.70;;
32228;SDS011;18717;48.034;11.186;2024-03-22T01:47:18;17.40;;;15.60;;
32228;SDS011;18717;48.034;11.186;2024-03-22T01:49:44;20.10;;;16.17;;
32228;SDS011;18717;48.034;11.186;2024-03-22T01:52:10;17.77;;;15.25;;
32228;SDS011;18717;48.034;11.186;2024-03-22T01:54:36;25.48;;;18.02;;
32228;SDS011;18717;48.034;11.186;2024-03-22T01:57:03;20.80;;;16.85;;
32228;SDS011;18717;48.034;11.186;2024-03-22T01:59:31;21.15;;;16.73;;
32228;SDS011;18717;48.034;11.186;2024-03-22T02:01:59;23.77;;;17.65;;
32228;SDS011;18717;48.034;11.186;2024-03-22T02:04:25;24.40;;;17.95;;
32228;SDS011;18717;48.034;11.186;2024-03-22T02:06:51;22.40;;;18.00;;
32228;SDS011;18717;48.034;11.186;2024-03-22T02:09:17;24.80;;;18.75;;
32228;SDS011;18717;48.034;11.186;2024-03-22T02:11:46;30.45;;;18.92;;
32228;SDS011;18717;48.034;11.186;2024-03-22T02:14:12;22.33;;;17.75;;
32228;SDS011;18717;48.034;11.186;2024-03-22T02:16:40;23.30;;;18.00;;
32228;SDS011;18717;48.034;11.186;2024-03-22T02:19:06;28.00;;;17.70;;
32228;SDS011;18717;48.034;11.186;2024-03-22T02:21:33;24.35;;;18.52;;
32228;SDS011;18717;48.034;11.186;2024-03-22T02:24:00;26.27;;;17.88;;
32228;SDS011;18717;48.034;11.186;2024-03-22T02:26:27;23.70;;;17.77;;
32228;SDS011;18717;48.034;11.186;2024-03-22T02:28:52;23.02;;;17.58;;
32228;SDS011;18717;48.034;11.186;2024-03-22T02:31:19;24.67;;;17.67;;
32228;SDS011;18717;48.034;11.186;2024-03-22T02:33:45;23.50;;;18.48;;
32228;SDS011;18717;48.034;11.186;2024-03-22T02:36:12;30.13;;;19.02;;
32228;SDS011;18717;48.034;11.186;2024-03-22T02:38:37;29.40;;;19.67;;
32228;SDS011;18717;48.034;11.186;2024-03-22T02:41:06;29.50;;;20.45;;
32228;SDS011;18717;48.034;11.186;2024-03-22T02:43:31;29.50;;;21.45;;
32228;SDS011;18717;48.034;11.186;2024-03-22T02:45:58;28.95;;;19.83;;
32228;SDS011;18717;48.034;11.186;2024-03-22T02:48:24;24.65;;;18.40;;
32228;SDS011;18717;48.034;11.186;2024-03-22T02:50:54;22.10;;;17.92;;
32228;SDS011;18717;48.034;11.186;2024-03-22T02:53:20;24.25;;;19.42;;
32228;SDS011;18717;48.034;11.186;2024-03-22T02:55:47;19.95;;;16.20;;
32228;SDS011;18717;48.034;11.186;2024-03-22T02:58:14;24.40;;;17.00;;
32228;SDS011;18717;48.034;11.186;2024-03-22T03:00:43;22.70;;;16.38;;
32228;SDS011;18717;48.034;11.186;2024-03-22T03:03:08;25.25;;;18.75;;
32228;SDS011;18717;48.034;11.186;2024-03-22T03:05:35;25.77;;;18.33;;
32228;SDS011;18717;48.034;11.186;2024-03-22T03:08:01;21.27;;;16.02;;
32228;SDS011;18717;48.034;11.186;2024-03-22T03:10:28;30.80;;;17.98;;
32228;SDS011;18717;48.034;11.186;2024-03-22T03:12:55;20.77;;;15.50;;
32228;SDS011;18717;48.034;11.186;2024-03-22T03:15:23;29.77;;;16.88;;
32228;SDS011;18717;48.034;11.186;2024-03-22T03:17:48;24.33;;;16.77;;
32228;SDS011;18717;48.034;11.186;2024-03-22T03:20:17;23.20;;;17.17;;
32228;SDS011;18717;48.034;11.186;2024-03-22T03:22:42;21.00;;;15.93;;
32228;SDS011;18717;48.034;11.186;2024-03-22T03:25:09;19.95;;;15.65;;
32228;SDS011;18717;48.034;11.186;2024-03-22T03:27:35;19.30;;;16.13;;
32228;SDS011;18717;48.034;11.186;2024-03-22T03:30:02;20.00;;;17.25;;
32228;SDS011;18717;48.034;11.186;2024-03-22T03:32:30;21.42;;;15.98;;
32228;SDS011;18717;48.034;11.186;2024-03-22T03:34:57;20.95;;;14.38;;
32228;SDS011;18717;48.034;11.186;2024-03-22T03:37:23;20.10;;;15.45;;
32228;SDS011;18717;48.034;11.186;2024-03-22T03:39:49;17.23;;;14.65;;
32228;SDS011;18717;48.034;11.186;2024-03-22T03:42:15;31.05;;;14.50;;
32228;SDS011;18717;48.034;11.186;2024-03-22T03:44:42;15.90;;;13.57;;
32228;SDS011;18717;48.034;11.186;2024-03-22T03:47:08;48.55;;;15.02;;
32228;SDS011;18717;48.034;11.186;2024-03-22T03:49:36;60.13;;;15.57;;
32228;SDS011;18717;48.034;11.186;2024-03-22T03:52:02;21.00;;;14.20;;
32228;SDS011;18717;48.034;11.186;2024-03-22T03:54:28;17.75;;;14.73;;
32228;SDS011;18717;48.034;11.186;2024-03-22T03:56:54;19.38;;;14.60;;
32228;SDS011;18717;48.034;11.186;2024-03-22T03:59:21;17.52;;;14.50;;
32228;SDS011;18717;48.034;11.186;2024-03-22T04:01:47;15.95;;;14.13;;
32228;SDS011;18717;48.034;11.186;2024-03-22T04:04:14;29.38;;;14.35;;
32228;SDS011;18717;48.034;11.186;2024-03-22T04:06:41;33.85;;;14.35;;
32228;SDS011;18717;48.034;11.186;2024-03-22T04:09:10;36.10;;;14.30;;
32228;SDS011;18717;48.034;11.186;2024-03-22T04:11:36;81.15;;;15.13;;
32228;SDS011;18717;48.034;11.186;2024-03-22T04:14:03;31.83;;;13.40;;
32228;SDS011;18717;48.034;11.186;2024-03-22T04:16:29;23.85;;;13.15;;
32228;SDS011;18717;48.034;11.186;2024-03-22T04:18:56;50.08;;;15.30;;
32228;SDS011;18717;48.034;11.186;2024-03-22T04:21:21;38.67;;;14.05;;
32228;SDS011;18717;48.034;11.186;2024-03-22T04:23:50;69.65;;;15.15;;
32228;SDS011;18717;48.034;11.186;2024-03-22T04:26:15;21.58;;;13.95;;
32228;SDS011;18717;48.034;11.186;2024-03-22T04:28:42;28.23;;;14.45;;
32228;SDS011;18717;48.034;11.186;2024-03-22T04:31:08;66.75;;;16.15;;
32228;SDS011;18717;48.034;11.186;2024-03-22T04:33:36;27.10;;;15.60;;
32228;SDS011;18717;48.034;11.186;2024-03-22T04:36:02;47.20;;;15.95;;
32228;SDS011;18717;48.034;11.186;2024-03-22T04:38:30;22.23;;;15.02;;
32228;SDS011;18717;48.034;11.186;2024-03-22T04:40:58;21.83;;;14.77;;
32228;SDS011;18717;48.034;11.186;2024-03-22T04:43:26;25.05;;;15.10;;
32228;SDS011;18717;48.034;11.186;2024-03-22T04:45:54;27.75;;;15.30;;
32228;SDS011;18717;48.034;11.186;2024-03-22T04:48:21;31.00;;;14.27;;
32228;SDS011;18717;48.034;11.186;2024-03-22T04:50:47;26.55;;;15.15;;
32228;SDS011;18717;48.034;11.186;2024-03-22T04:53:15;20.88;;;13.68;;
32228;SDS011;18717;48.034;11.186;2024-03-22T04:55:42;71.18;;;15.52;;
32228;SDS011;18717;48.034;11.186;2024-03-22T04:58:12;29.67;;;14.30;;
32228;SDS011;18717;48.034;11.186;2024-03-22T05:00:38;30.88;;;13.57;;
32228;SDS011;18717;48.034;11.186;2024-03-22T05:03:05;55.33;;;15.10;;
32228;SDS011;18717;48.034;11.186;2024-03-22T05:05:31;26.30;;;14.27;;
32228;SDS011;18717;48.034;11.186;2024-03-22T05:07:58;50.83;;;15.55;;
32228;SDS011;18717;48.034;11.186;2024-03-22T05:10:24;46.97;;;14.77;;
32228;SDS011;18717;48.034;11.186;2024-03-22T05:12:50;44.28;;;15.70;;
32228;SDS011;18717;48.034;11.186;2024-03-22T05:15:18;64.55;;;14.82;;
32228;SDS011;18717;48.034;11.186;2024-03-22T05:17:44;49.03;;;14.68;;
32228;SDS011;18717;48.034;11.186;2024-03-22T05:20:10;21.27;;;15.05;;
32228;SDS011;18717;48.034;11.186;2024-03-22T05:22:37;32.53;;;14.50;;
32228;SDS011;18717;48.034;11.186;2024-03-22T05:25:03;31.52;;;14.60;;
32228;SDS011;18717;48.034;11.186;2024-03-22T05:27:31;35.78;;;14.88;;
32228;SDS011;18717;48.034;11.186;2024-03-22T05:29:57;65.38;;;15.20;;
32228;SDS011;18717;48.034;11.186;2024-03-22T05:32:25;33.83;;;13.77;;
32228;SDS011;18717;48.034;11.186;2024-03-22T05:34:51;25.50;;;14.55;;
32228;SDS011;18717;48.034;11.186;2024-03-22T05:37:18;30.02;;;13.95;;
32228;SDS011;18717;48.034;11.186;2024-03-22T05:39:44;50.30;;;15.95;;
32228;SDS011;18717;48.034;11.186;2024-03-22T05:42:10;23.90;;;14.38;;
32228;SDS011;18717;48.034;11.186;2024-03-22T05:44:36;17.42;;;14.02;;
32228;SDS011;18717;48.034;11.186;2024-03-22T05:47:03;15.82;;;14.23;;
32228;SDS011;18717;48.034;11.186;2024-03-22T05:49:30;37.85;;;15.27;;
32228;SDS011;18717;48.034;11.186;2024-03-22T05:51:57;21.98;;;14.57;;
32228;SDS011;18717;48.034;11.186;2024-03-22T05:54:23;18.73;;;15.18;;
32228;SDS011;18717;48.034;11.186;2024-03-22T05:56:50;28.27;;;14.02;;
32228;SDS011;18717;48.034;11.186;2024-03-22T05:59:16;19.05;;;15.38;;
32228;SDS011;18717;48.034;11.186;2024-03-22T06:01:42;16.92;;;15.10;;
32228;SDS011;18717;48.034;11.186;2024-03-22T06:04:08;18.67;;;15.10;;
32228;SDS011;18717;48.034;11.186;2024-03-22T06:06:36;52.70;;;17.27;;
32228;SDS011;18717;48.034;11.186;2024-03-22T06:09:03;20.75;;;16.30;;
32228;SDS011;18717;48.034;11.186;2024-03-22T06:11:34;22.13;;;17.92;;
32228;SDS011;18717;48.034;11.186;2024-03-22T06:13:59;23.00;;;17.50;;
32228;SDS011;18717;48.034;11.186;2024-03-22T06:16:26;22.27;;;17.23;;
32228;SDS011;18717;48.034;11.186;2024-03-22T06:18:52;24.10;;;18.00;;
32228;SDS011;18717;48.034;11.186;2024-03-22T06:21:19;20.55;;;16.42;;
32228;SDS011;18717;48.034;11.186;2024-03-22T06:23:49;20.20;;;15.57;;
32228;SDS011;18717;48.034;11.186;2024-03-22T06:26:16;23.00;;;16.38;;
32228;SDS011;18717;48.034;11.186;2024-03-22T06:28:42;21.05;;;15.35;;
32228;SDS011;18717;48.034;11.186;2024-03-22T06:31:09;25.30;;;15.85;;
32228;SDS011;18717;48.034;11.186;2024-03-22T06:33:35;71.03;;;17.20;;
32228;SDS011;18717;48.034;11.186;2024-03-22T06:36:02;44.30;;;15.55;;
32228;SDS011;18717;48.034;11.186;2024-03-22T06:38:28;27.70;;;15.45;;
32228;SDS011;18717;48.034;11.186;2024-03-22T06:40:56;76.55;;;16.90;;
32228;SDS011;18717;48.034;11.186;2024-03-22T06:43:24;45.15;;;17.00;;
32228;SDS011;18717;48.034;11.186;2024-03-22T06:45:51;29.50;;;17.15;;
32228;SDS011;18717;48.034;11.186;2024-03-22T06:48:16;24.77;;;18.13;;
32228;SDS011;18717;48.034;11.186;2024-03-22T06:50:43;35.13;;;18.38;;
32228;SDS011;18717;48.034;11.186;2024-03-22T06:53:09;24.80;;;17.23;;
32228;SDS011;18717;48.034;11.186;2024-03-22T06:55:37;29.88;;;17.77;;
32228;SDS011;18717;48.034;11.186;2024-03-22T06:58:05;24.83;;;18.63;;
32228;SDS011;18717;48.034;11.186;2024-03-22T07:00:31;31.20;;;19.05;;
32228;SDS011;18717;48.034;11.186;2024-03-22T07:02:59;25.95;;;17.73;;
32228;SDS011;18717;48.034;11.186;2024-03-22T07:05:27;29.50;;;17.98;;
32228;SDS011;18717;48.034;11.186;2024-03-22T07:07:53;25.23;;;18.58;;
32228;SDS011;18717;48.034;11.186;2024-03-22T07:10:22;25.95;;;18.80;;
32228;SDS011;18717;48.034;11.186;2024-03-22T07:12:52;25.48;;;18.08;;
32228;SDS011;18717;48.034;11.186;2024-03-22T07:15:22;26.65;;;18.58;;
32228;SDS011;18717;48.034;11.186;2024-03-22T07:17:49;23.20;;;18.20;;
32228;SDS011;18717;48.034;11.186;2024-03-22T07:20:15;24.38;;;19.02;;
32228;SDS011;18717;48.034;11.186;2024-03-22T07:22:41;23.63;;;19.52;;
32228;SDS011;18717;48.034;11.186;2024-03-22T07:25:08;25.67;;;18.85;;
32228;SDS011;18717;48.034;11.186;2024-03-22T07:27:35;22.55;;;19.17;;
32228;SDS011;18717;48.034;11.186;2024-03-22T07:30:02;22.45;;;18.67;;
32228;SDS011;18717;48.034;11.186;2024-03-22T07:32:29;21.83;;;19.13;;
32228;SDS011;18717;48.034;11.186;2024-03-22T07:34:57;29.08;;;18.92;;
32228;SDS011;18717;48.034;11.186;2024-03-22T07:37:22;22.15;;;18.00;;
32228;SDS011;18717;48.034;11.186;2024-03-22T07:39:49;21.15;;;18.42;;
32228;SDS011;18717;48.034;11.186;2024-03-22T07:42:15;23.38;;;17.88;;
32228;SDS011;18717;48.034;11.186;2024-03-22T07:44:42;20.08;;;16.50;;
32228;SDS011;18717;48.034;11.186;2024-03-22T07:47:08;20.90;;;18.02;;
32228;SDS011;18717;48.034;11.186;2024-03-22T07:49:36;19.58;;;17.48;;
32228;SDS011;18717;48.034;11.186;2024-03-22T07:52:02;18.65;;;16.80;;
32228;SDS011;18717;48.034;11.186;2024-03-22T07:54:30;18.02;;;15.63;;
32228;SDS011;18717;48.034;11.186;2024-03-22T07:56:56;18.08;;;16.35;;
32228;SDS011;18717;48.034;11.186;2024-03-22T07:59:23;17.88;;;16.23;;
32228;SDS011;18717;48.034;11.186;2024-03-22T08:01:48;18.13;;;16.33;;
32228;SDS011;18717;48.034;11.186;2024-03-22T08:04:15;17.48;;;15.82;;
32228;SDS011;18717;48.034;11.186;2024-03-22T08:06:42;20.42;;;15.57;;
32228;SDS011;18717;48.034;11.186;2024-03-22T08:09:09;16.13;;;14.57;;
32228;SDS011;18717;48.034;11.186;2024-03-22T08:11:35;18.15;;;16.05;;
32228;SDS011;18717;48.034;11.186;2024-03-22T08:14:01;16.92;;;15.23;;
32228;SDS011;18717;48.034;11.186;2024-03-22T08:16:28;16.25;;;14.70;;
32228;SDS011;18717;48.034;11.186;2024-03-22T08:18:55;18.45;;;15.45;;
32228;SDS011;18717;48.034;11.186;2024-03-22T08:21:21;17.80;;;16.20;;
32228;SDS011;18717;48.034;11.186;2024-03-22T08:23:50;17.00;;;15.60;;
32228;SDS011;18717;48.034;11.186;2024-03-22T08:26:15;15.15;;;13.95;;
32228;SDS011;18717;48.034;11.186;2024-03-22T08:28:43;17.67;;;14.40;;
32228;SDS011;18717;48.034;11.186;2024-03-22T08:31:09;18.45;;;16.65;;
32228;SDS011;18717;48.034;11.186;2024-03-22T08:33:36;17.52;;;15.90;;
32228;SDS011;18717;48.034;11.186;2024-03-22T08:36:02;16.38;;;14.95;;
32228;SDS011;18717;48.034;11.186;2024-03-22T08:38:29;16.60;;;15.10;;
32228;SDS011;18717;48.034;11.186;2024-03-22T08:40:56;16.63;;;15.02;;
32228;SDS011;18717;48.034;11.186;2024-03-22T08:43:23;15.75;;;14.30;;
32228;SDS011;18717;48.034;11.186;2024-03-22T08:45:51;16.38;;;14.98;;
32228;SDS011;18717;48.034;11.186;2024-03-22T08:48:17;14.35;;;13.38;;
32228;SDS011;18717;48.034;11.186;2024-03-22T08:50:43;14.48;;;13.48;;
32228;SDS011;18717;48.034;11.186;2024-03-22T08:53:10;14.07;;;12.98;;
32228;SDS011;18717;48.034;11.186;2024-03-22T08:55:36;14.73;;;13.30;;
32228;SDS011;18717;48.034;11.186;2024-03-22T08:58:04;13.50;;;12.40;;
32228;SDS011;18717;48.034;11.186;2024-03-22T09:00:30;14.32;;;13.23;;
32228;SDS011;18717;48.034;11.186;2024-03-22T09:02:57;14.93;;;13.68;;
32228;SDS011;18717;48.034;11.186;2024-03-22T09:05:22;14.68;;;13.48;;
32228;SDS011;18717;48.034;11.186;2024-03-22T09:07:49;13.85;;;12.85;;
32228;SDS011;18717;48.034;11.186;2024-03-22T09:10:18;14.90;;;13.90;;
32228;SDS011;18717;48.034;11.186;2024-03-22T09:12:44;14.35;;;13.35;;
32228;SDS011;18717;48.034;11.186;2024-03-22T09:15:12;14.80;;;13.50;;
32228;SDS011;18717;48.034;11.186;2024-03-22T09:17:39;14.43;;;13.20;;
32228;SDS011;18717;48.034;11.186;2024-03-22T09:20:05;14.23;;;13.23;;
32228;SDS011;18717;48.034;11.186;2024-03-22T09:22:33;14.82;;;13.73;;
32228;SDS011;18717;48.034;11.186;2024-03-22T09:24:59;13.98;;;12.98;;
32228;SDS011;18717;48.034;11.186;2024-03-22T09:27:26;14.13;;;12.90;;
32228;SDS011;18717;48.034;11.186;2024-03-22T09:29:51;14.15;;;12.75;;
32228;SDS011;18717;48.034;11.186;2024-03-22T09:32:20;13.68;;;12.77;;
32228;SDS011;18717;48.034;11.186;2024-03-22T09:34:48;14.07;;;12.93;;
32228;SDS011;18717;48.034;11.186;2024-03-22T09:37:15;13.77;;;12.77;;
32228;SDS011;18717;48.034;11.186;2024-03-22T09:39:41;12.95;;;12.25;;
32228;SDS011;18717;48.034;11.186;2024-03-22T09:42:08;14.93;;;14.02;;
32228;SDS011;18717;48.034;11.186;2024-03-22T09:44:33;14.55;;;13.45;;
32228;SDS011;18717;48.034;11.186;2024-03-22T09:47:01;14.38;;;13.18;;
32228;SDS011;18717;48.034;11.186;2024-03-22T09:49:28;14.13;;;13.23;;
32228;SDS011;18717;48.034;11.186;2024-03-22T09:51:55;13.98;;;13.07;;
32228;SDS011;18717;48.034;11.186;2024-03-22T09:54:22;13.73;;;12.77;;
32228;SDS011;18717;48.034;11.186;2024-03-22T09:56:50;14.55;;;13.55;;
32228;SDS011;18717;48.034;11.186;2024-03-22T09:59:17;13.95;;;13.05;;
32228;SDS011;18717;48.034;11.186;2024-03-22T10:01:44;15.10;;;13.63;;
32228;SDS011;18717;48.034;11.186;2024-03-22T10:04:10;14.15;;;13.00;;
32228;SDS011;18717;48.034;11.186;2024-03-22T10:06:38;15.70;;;14.60;;
32228;SDS011;18717;48.034;11.186;2024-03-22T10:09:04;14.32;;;13.48;;
32228;SDS011;18717;48.034;11.186;2024-03-22T10:11:31;14.38;;;13.45;;
32228;SDS011;18717;48.034;11.186;2024-03-22T10:13:57;14.02;;;13.10;;
32228;SDS011;18717;48.034;11.186;2024-03-22T10:16:23;15.65;;;14.18;;
32228;SDS011;18717;48.034;11.186;2024-03-22T10:18:49;13.43;;;12.63;;
32228;SDS011;18717;48.034;11.186;2024-03-22T10:21:16;14.75;;;13.73;;
32228;SDS011;18717;48.034;11.186;2024-03-22T10:23:46;14.80;;;13.80;;
32228;SDS011;18717;48.034;11.186;2024-03-22T10:26:14;14.18;;;13.13;;
32228;SDS011;18717;48.034;11.186;2024-03-22T10:28:43;15.38;;;14.13;;
32228;SDS011;18717;48.034;11.186;2024-03-22T10:31:11;14.07;;;13.23;;
32228;SDS011;18717;48.034;11.186;2024-03-22T10:33:37;14.80;;;13.70;;
32228;SDS011;18717;48.034;11.186;2024-03-22T10:36:05;13.88;;;13.00;;
32228;SDS011;18717;48.034;11.186;2024-03-22T10:38:31;14.88;;;13.98;;
32228;SDS011;18717;48.034;11.186;2024-03-22T10:41:00;15.40;;;13.95;;
32228;SDS011;18717;48.034;11.186;2024-03-22T10:43:26;14.48;;;13.55;;
32228;SDS011;18717;48.034;11.186;2024-03-22T10:45:52;15.25;;;14.25;;
32228;SDS011;18717;48.034;11.186;2024-03-22T10:48:22;14.93;;;14.00;;
32228;SDS011;18717;48.034;11.186;2024-03-22T10:50:51;14.77;;;13.60;;
32228;SDS011;18717;48.034;11.186;2024-03-22T10:53:19;14.63;;;13.65;;
32228;SDS011;18717;48.034;11.186;2024-03-22T10:55:49;14.57;;;13.73;;
32228;SDS011;18717;48.034;11.186;2024-03-22T10:58:18;15.02;;;13.80;;
32228;SDS011;18717;48.034;11.186;2024-03-22T11:00:50;16.20;;;14.93;;
32228;SDS011;18717;48.034;11.186;2024-03-22T11:03:19;15.98;;;14.60;;
32228;SDS011;18717;48.034;11.186;2024-03-22T11:05:46;15.13;;;14.13;;
32228;SDS011;18717;48.034;11.186;2024-03-22T11:08:12;14.82;;;13.82;;
32228;SDS011;18717;48.034;11.186;2024-03-22T11:10:39;15.50;;;13.93;;
32228;SDS011;18717;48.034;11.186;2024-03-22T11:13:07;14.70;;;13.77;;
32228;SDS011;18717;48.034;11.186;2024-03-22T11:15:36;15.60;;;14.50;;
32228;SDS011;18717;48.034;11.186;2024-03-22T11:18:02;14.32;;;13.30;;
32228;SDS011;18717;48.034;11.186;2024-03-22T11:20:29;15.27;;;14.27;;
32228;SDS011;18717;48.034;11.186;2024-03-22T11:22:55;14.88;;;13.80;;
32228;SDS011;18717;48.034;11.186;2024-03-22T11:25:22;15.00;;;13.98;;
32228;SDS011;18717;48.034;11.186;2024-03-22T11:27:48;15.10;;;13.95;;
32228;SDS011;18717;48.034;11.186;2024-03-22T11:30:15;15.65;;;14.48;;
32228;SDS011;18717;48.034;11.186;2024-03-22T11:32:42;15.57;;;14.55;;
32228;SDS011;18717;48.034;11.186;2024-03-22T11:35:10;14.65;;;13.52;;
32228;SDS011;18717;48.034;11.186;2024-03-22T11:37:38;15.52;;;14.23;;
32228;SDS011;18717;48.034;11.186;2024-03-22T11:40:05;14.77;;;13.88;;
32228;SDS011;18717;48.034;11.186;2024-03-22T11:42:32;14.75;;;13.68;;
32228;SDS011;18717;48.034;11.186;2024-03-22T11:44:59;14.68;;;13.43;;
32228;SDS011;18717;48.034;11.186;2024-03-22T11:47:25;14.30;;;13.30;;
32228;SDS011;18717;48.034;11.186;2024-03-22T11:49:53;14.25;;;13.55;;
32228;SDS011;18717;48.034;11.186;2024-03-22T11:52:23;14.55;;;13.40;;
32228;SDS011;18717;48.034;11.186;2024-03-22T11:54:51;13.88;;;12.82;;
32228;SDS011;18717;48.034;11.186;2024-03-22T11:57:18;42.72;;;39.72;;
32228;SDS011;18717;48.034;11.186;2024-03-22T11:59:44;16.67;;;15.55;;
32228;SDS011;18717;48.034;11.186;2024-03-22T12:02:10;16.35;;;15.05;;
32228;SDS011;18717;48.034;11.186;2024-03-22T12:04:40;18.20;;;16.92;;
32228;SDS011;18717;48.034;11.186;2024-03-22T12:07:10;17.42;;;16.13;;
32228;SDS011;18717;48.034;11.186;2024-03-22T12:09:37;16.35;;;15.15;;
32228;SDS011;18717;48.034;11.186;2024-03-22T12:12:03;15.98;;;14.70;;
32228;SDS011;18717;48.034;11.186;2024-03-22T12:14:30;16.15;;;14.57;;
32228;SDS011;18717;48.034;11.186;2024-03-22T12:16:56;14.60;;;13.60;;
32228;SDS011;18717;48.034;11.186;2024-03-22T12:19:24;15.32;;;13.98;;
32228;SDS011;18717;48.034;11.186;2024-03-22T12:21:50;14.70;;;13.68;;
32228;SDS011;18717;48.034;11.186;2024-03-22T12:24:18;15.55;;;14.07;;
32228;SDS011;18717;48.034;11.186;2024-03-22T12:26:43;16.10;;;15.10;;
32228;SDS011;18717;48.034;11.186;2024-03-22T12:29:12;16.90;;;14.27;;
32228;SDS011;18717;48.034;11.186;2024-03-22T12:31:38;15.45;;;14.35;;
32228;SDS011;18717;48.034;11.186;2024-03-22T12:34:05;15.13;;;14.32;;
32228;SDS011;18717;48.034;11.186;2024-03-22T12:36:30;14.63;;;13.63;;
32228;SDS011;18717;48.034;11.186;2024-03-22T12:38:57;14.93;;;13.82;;
32228;SDS011;18717;48.034;11.186;2024-03-22T12:41:24;15.85;;;14.88;;
32228;SDS011;18717;48.034;11.186;2024-03-22T12:43:51;15.45;;;14.48;;
32228;SDS011;18717;48.034;11.186;2024-03-22T12:46:17;14.70;;;13.80;;
32228;SDS011;18717;48.034;11.186;2024-03-22T12:48:44;15.80;;;14.63;;
32228;SDS011;18717;48.034;11.186;2024-03-22T12:51:09;15.65;;;14.35;;
32228;SDS011;18717;48.034;11.186;2024-03-22T12:53:36;15.25;;;14.23;;
32228;SDS011;18717;48.034;11.186;2024-03-22T12:56:02;14.95;;;13.85;;
32228;SDS011;18717;48.034;11.186;2024-03-22T12:58:31;15.20;;;14.18;;
32228;SDS011;18717;48.034;11.186;2024-03-22T13:00:57;15.88;;;14.77;;
32228;SDS011;18717;48.034;11.186;2024-03-22T13:03:25;14.35;;;13.45;;
32228;SDS011;18717;48.034;11.186;2024-03-22T13:05:51;15.05;;;14.23;;
32228;SDS011;18717;48.034;11.186;2024-03-22T13:08:18;14.43;;;13.45;;
32228;SDS011;18717;48.034;11.186;2024-03-22T13:10:45;14.27;;;13.48;;
32228;SDS011;18717;48.034;11.186;2024-03-22T13:13:12;14.82;;;13.93;;
32228;SDS011;18717;48.034;11.186;2024-03-22T13:15:42;25.30;;;23.88;;
32228;SDS011;18717;48.034;11.186;2024-03-22T13:18:09;14.57;;;13.55;;
32228;SDS011;18717;48.034;11.186;2024-03-22T13:20:35;13.48;;;12.68;;
32228;SDS011;18717;48.034;11.186;2024-03-22T13:23:02;13.55;;;12.88;;
32228;SDS011;18717;48.034;11.186;2024-03-22T13:25:29;13.52;;;12.70;;
32228;SDS011;18717;48.034;11.186;2024-03-22T13:27:56;14.40;;;13.50;;
32228;SDS011;18717;48.034;11.186;2024-03-22T13:30:22;15.48;;;14.45;;
32228;SDS011;18717;48.034;11.186;2024-03-22T13:32:50;12.75;;;11.98;;
32228;SDS011;18717;48.034;11.186;2024-03-22T13:35:16;13.05;;;12.40;;
32228;SDS011;18717;48.034;11.186;2024-03-22T13:37:43;13.05;;;12.15;;
32228;SDS011;18717;48.034;11.186;2024-03-22T13:40:09;13.35;;;12.65;;
32228;SDS011;18717;48.034;11.186;2024-03-22T13:42:37;13.18;;;12.45;;
32228;SDS011;18717;48.034;11.186;2024-03-22T13:45:03;13.88;;;13.07;;
32228;SDS011;18717;48.034;11.186;2024-03-22T13:47:30;14.10;;;13.20;;
32228;SDS011;18717;48.034;11.186;2024-03-22T13:49:57;12.63;;;12.02;;
32228;SDS011;18717;48.034;11.186;2024-03-22T13:52:24;13.82;;;12.82;;
32228;SDS011;18717;48.034;11.186;2024-03-22T13:54:51;12.43;;;11.82;;
32228;SDS011;18717;48.034;11.186;2024-03-22T13:57:18;12.77;;;12.18;;
32228;SDS011;18717;48.034;11.186;2024-03-22T13:59:44;13.35;;;12.75;;
32228;SDS011;18717;48.034;11.186;2024-03-22T14:02:11;13.40;;;12.70;;
32228;SDS011;18717;48.034;11.186;2024-03-22T14:04:37;13.38;;;12.45;;
32228;SDS011;18717;48.034;11.186;2024-03-22T14:43:37;11.63;;;10.95;;